Airfield :
LOGIN :

Register | Disclaimer

   EN    FR    IT 

 










Legend :    VFR   Marginal VFR   IFR   Intensive IFR   Very Intensive IFR
Visi :
Ceiling :
>= 8 km
>= 3000ft
5 to 8 km
1000 to 3000 ft
1500m to 5 km
500 to 1000 ft
800 to 1500m
200 to 500 ft
< 800m
< 200 ft
Symbols :   Thunderstorms  Fog  Heavy snow  Heavy precipitations  Wind > 20 kt
SIGMETs :     Misc.  Thunderstorms  Icing  Turbulence  Mountain Waves  Volcanic Ashes







- Airport Elevation : 92 ft


EGXZ - RAP Topcliffe

CURRENT METAR :
  • 281550Z AUTO 20010KT 9999 BKN034/// BKN043/// 18/12 Q1002

EXPIRED METARs :
  • 281450Z 24014KT CAVOK 20/10 Q1002 BLU
  • 281350Z 24012KT 9999 SCT045 BKN220 20/09 Q1002 BLU

TAF TAF EGXZ
Valid from the 28 at 10:00 until the 28 at 17:00 UTC


280947Z 2810/2817 24012KT 9999 FEW020 SCT030
TEMPO 2810/2814 25017G27KT
PROB30
TEMPO 2810/2811 SCT020
No reported NOTAMs for that airfield.



MET'MAP, your aeronautical weather chart ! - Copyright ORBIFLY December 2007 - Disclaimer

ORBIFLY MET'MAP TEAM :

Programming & Development : Alexandra Zaïnal
Concept & Development : Baudouin d'Aumeries
Co-Development & Prog : Marc-Olivier Méhu
Technical & hardware support : Manuel Goepfert

Contact : metmap@orbifly.com




SOURCES & CREDITS :

   NOAA